createdAt,value
2023-03-20T00:01:20.162Z,101607.47
2023-03-20T00:03:47.558Z,101659.88
2023-03-20T00:06:19.576Z,101758.63
2023-03-20T00:08:48.449Z,101725.28
2023-03-20T00:11:28.963Z,101672.47
2023-03-20T00:14:06.046Z,101741.09
2023-03-20T00:16:38.385Z,101659.06
2023-03-20T00:19:06.849Z,101716.69
2023-03-20T00:21:34.243Z,101686.03
2023-03-20T00:24:00.805Z,101757.00
2023-03-20T00:26:33.708Z,101658.06
2023-03-20T00:29:03.902Z,101721.03
2023-03-20T00:31:33.782Z,101614.75
2023-03-20T00:34:03.525Z,101592.31
2023-03-20T00:36:30.324Z,101746.22
2023-03-20T00:38:59.322Z,101765.91
2023-03-20T00:41:37.333Z,101747.34
2023-03-20T00:44:22.822Z,101746.41
2023-03-20T00:46:53.612Z,101729.09
2023-03-20T00:49:27.920Z,101753.50
2023-03-20T00:51:55.124Z,101655.56
2023-03-20T00:54:21.797Z,101717.50
2023-03-20T00:56:55.324Z,101710.59
2023-03-20T00:59:25.544Z,101636.69
2023-03-20T01:01:52.332Z,101714.09
2023-03-20T01:04:20.692Z,101710.69
2023-03-20T01:06:47.951Z,101637.84
2023-03-20T01:09:15.903Z,101630.72
2023-03-20T01:11:45.813Z,101702.69
2023-03-20T01:14:14.599Z,101716.09
2023-03-20T01:16:42.020Z,101732.00
2023-03-20T01:19:13.102Z,101655.56
2023-03-20T01:21:40.363Z,101731.59
2023-03-20T01:24:07.356Z,101742.28
2023-03-20T01:26:36.688Z,101679.16
2023-03-20T01:29:32.923Z,101781.56
2023-03-20T01:31:59.533Z,101760.84
2023-03-20T01:34:27.797Z,101766.56
2023-03-20T01:36:58.762Z,101659.41
2023-03-20T01:39:33.267Z,101672.69
2023-03-20T01:42:00.495Z,101710.19
2023-03-20T01:44:31.293Z,101718.41
2023-03-20T01:47:01.272Z,101597.91
2023-03-20T01:49:28.624Z,101774.22
2023-03-20T01:51:58.929Z,101755.19
2023-03-20T01:54:35.795Z,101753.50
2023-03-20T01:57:14.884Z,101615.59
2023-03-20T01:59:51.216Z,101691.03
2023-03-20T02:02:28.525Z,101747.75
2023-03-20T02:05:00.919Z,101724.44
2023-03-20T02:07:27.990Z,101759.25
2023-03-20T02:10:01.081Z,101765.53
2023-03-20T02:12:51.702Z,101653.66
2023-03-20T02:15:29.714Z,101726.41
2023-03-20T02:18:08.855Z,101653.16
2023-03-20T02:21:17.008Z,101763.75
2023-03-20T02:23:57.888Z,101716.63
2023-03-20T02:26:55.573Z,101659.22
2023-03-20T02:29:46.961Z,101750.75
2023-03-20T02:32:32.332Z,101743.09
2023-03-20T02:35:19.106Z,101749.72
2023-03-20T02:37:48.844Z,101761.69
2023-03-20T02:40:25.058Z,101765.91
2023-03-20T02:43:14.260Z,101768.97
2023-03-20T02:46:18.880Z,101753.22
2023-03-20T02:49:13.540Z,101767.66
2023-03-20T02:52:15.416Z,101778.13
2023-03-20T02:54:52.117Z,101681.03
2023-03-20T02:57:38.756Z,101779.94
2023-03-20T03:00:29.229Z,101758.56
2023-03-20T03:03:12.308Z,101726.28
2023-03-20T03:05:45.329Z,101734.09
2023-03-20T03:08:17.687Z,101658.69
2023-03-20T03:10:51.028Z,101652.25
2023-03-20T03:13:23.041Z,101662.72
2023-03-20T03:15:55.502Z,101706.88
2023-03-20T03:18:26.250Z,101736.50
2023-03-20T03:20:58.068Z,101738.97
2023-03-20T03:23:44.590Z,101752.19
2023-03-20T03:26:18.700Z,101633.22
2023-03-20T03:28:51.060Z,101644.88
2023-03-20T03:31:19.132Z,101627.69
2023-03-20T03:33:49.853Z,101731.38
2023-03-20T03:36:44.964Z,101725.16
2023-03-20T03:39:28.047Z,101710.97
2023-03-20T03:42:09.187Z,101536.00
2023-03-20T03:45:07.936Z,101709.88
2023-03-20T03:47:46.330Z,101698.41
2023-03-20T03:50:21.910Z,101673.69
2023-03-20T03:52:50.874Z,101615.13
2023-03-20T03:55:32.017Z,101667.34
2023-03-20T03:58:10.630Z,101599.16
2023-03-20T04:00:41.380Z,101679.16
2023-03-20T04:03:09.896Z,101662.94
2023-03-20T04:05:41.260Z,101623.72
2023-03-20T04:08:07.882Z,101592.94
2023-03-20T04:10:34.515Z,101627.66
2023-03-20T04:13:01.307Z,101595.22
2023-03-20T04:15:28.370Z,101683.16
2023-03-20T04:17:55.601Z,101614.66
2023-03-20T04:20:22.913Z,101667.88
2023-03-20T04:22:49.622Z,101703.81
2023-03-20T04:25:23.155Z,101698.41
2023-03-20T04:27:52.766Z,101657.66
2023-03-20T04:30:30.075Z,101691.91
2023-03-20T04:33:13.412Z,101667.50
2023-03-20T04:36:02.055Z,101591.25
2023-03-20T04:38:28.730Z,101688.31
2023-03-20T04:40:55.878Z,101517.97
2023-03-20T04:43:22.664Z,101667.44
2023-03-20T04:45:49.428Z,101638.53
2023-03-20T04:48:16.033Z,101663.84
2023-03-20T04:50:42.661Z,101610.66
2023-03-20T04:53:10.876Z,101568.59
2023-03-20T04:55:37.762Z,101593.50
2023-03-20T04:58:04.530Z,101650.19
2023-03-20T05:00:31.269Z,101664.47
2023-03-20T05:02:58.125Z,101670.78
2023-03-20T05:05:25.528Z,101588.94
2023-03-20T05:07:52.371Z,101614.19
2023-03-20T05:10:33.213Z,101572.84
2023-03-20T05:13:06.367Z,101601.56
2023-03-20T05:16:01.528Z,101628.63
2023-03-20T05:18:51.383Z,101599.03
2023-03-20T05:21:37.742Z,101597.94
2023-03-20T05:24:15.380Z,101677.34
2023-03-20T05:27:02.078Z,101676.59
2023-03-20T05:29:49.912Z,101578.50
2023-03-20T05:32:30.465Z,101578.91
2023-03-20T05:35:12.265Z,101666.41
2023-03-20T05:37:54.141Z,101684.31
2023-03-20T05:40:39.119Z,101561.25
2023-03-20T05:43:21.386Z,101667.44
2023-03-20T05:46:04.804Z,101661.00
2023-03-20T05:48:40.064Z,101680.81
2023-03-20T05:51:27.263Z,101657.69
2023-03-20T05:54:16.725Z,101630.47
2023-03-20T05:56:59.182Z,101609.50
2023-03-20T05:59:26.134Z,101657.44
2023-03-20T06:02:12.177Z,101690.75
2023-03-20T06:04:44.173Z,101586.44
2023-03-20T06:07:27.673Z,101704.44
2023-03-20T06:10:04.769Z,101701.94
2023-03-20T06:12:31.969Z,101626.22
2023-03-20T06:14:58.619Z,101609.28
2023-03-20T06:17:26.940Z,101658.59
2023-03-20T06:20:01.066Z,101626.47
2023-03-20T06:22:29.315Z,101616.44
2023-03-20T06:24:57.180Z,101630.13
2023-03-20T06:27:31.092Z,101675.25
2023-03-20T06:29:58.211Z,101621.69
2023-03-20T06:32:31.108Z,101711.91
2023-03-20T06:35:00.137Z,101706.03
2023-03-20T06:37:27.059Z,101721.66
2023-03-20T06:40:01.019Z,101711.31
2023-03-20T06:42:28.050Z,101721.38
2023-03-20T06:44:56.378Z,101718.06
2023-03-20T06:47:38.563Z,101685.00
2023-03-20T06:50:06.634Z,101703.13
2023-03-20T06:52:33.810Z,101627.66
2023-03-20T06:55:31.992Z,101704.38
2023-03-20T06:57:58.546Z,101692.00
2023-03-20T07:00:26.004Z,101613.84
2023-03-20T07:02:53.262Z,101728.44
2023-03-20T07:05:20.020Z,101708.47
2023-03-20T07:07:47.096Z,101679.88
2023-03-20T07:10:14.279Z,101735.19
2023-03-20T07:12:48.385Z,101710.53
2023-03-20T07:15:15.310Z,101708.06
2023-03-20T07:17:41.871Z,101594.59
2023-03-20T07:20:09.949Z,101632.31
2023-03-20T07:22:36.934Z,101708.00
2023-03-20T07:25:16.856Z,101699.72
2023-03-20T07:27:50.146Z,101613.44
2023-03-20T07:30:20.370Z,101732.44
2023-03-20T07:32:48.921Z,101628.16
2023-03-20T07:35:16.112Z,101738.06
2023-03-20T07:37:43.957Z,101732.53
2023-03-20T07:40:11.151Z,101672.34
2023-03-20T07:42:45.530Z,101733.50
2023-03-20T07:45:14.278Z,101664.38
2023-03-20T07:47:46.063Z,101672.56
2023-03-20T07:50:12.642Z,101732.25
2023-03-20T07:52:46.724Z,101683.38
2023-03-20T07:55:13.788Z,101733.41
2023-03-20T07:57:40.384Z,101658.59
2023-03-20T08:00:08.838Z,101723.56
2023-03-20T08:02:38.309Z,101737.53
2023-03-20T08:05:05.748Z,101734.09
2023-03-20T08:07:35.539Z,101741.41
2023-03-20T08:10:03.672Z,101711.56
2023-03-20T08:12:30.194Z,101678.34
2023-03-20T08:14:56.736Z,101650.41
2023-03-20T08:17:23.326Z,101762.31
2023-03-20T08:19:50.148Z,101744.19
2023-03-20T08:22:16.939Z,101713.69
2023-03-20T08:24:43.545Z,101659.88
2023-03-20T08:27:10.361Z,101675.22
2023-03-20T08:29:36.895Z,101763.63
2023-03-20T08:32:05.259Z,101695.28
2023-03-20T08:34:33.458Z,101666.03
2023-03-20T08:37:00.171Z,101731.28
2023-03-20T08:39:26.687Z,101666.69
2023-03-20T08:41:53.924Z,101659.56
2023-03-20T08:44:20.647Z,101730.38
2023-03-20T08:46:47.432Z,101664.22
2023-03-20T08:49:14.151Z,101672.88
2023-03-20T08:51:41.103Z,101601.19
2023-03-20T08:54:07.609Z,101736.75
2023-03-20T08:56:34.121Z,101710.75
2023-03-20T08:59:00.697Z,101737.81
2023-03-20T09:01:41.733Z,101665.84
2023-03-20T09:04:14.653Z,101713.88
2023-03-20T09:06:41.683Z,101702.94
2023-03-20T09:09:08.382Z,101723.81
2023-03-20T09:11:34.933Z,101665.25
2023-03-20T09:14:01.488Z,101724.00
2023-03-20T09:16:28.207Z,101670.03
2023-03-20T09:18:54.998Z,101731.84
2023-03-20T09:21:21.555Z,101747.06
2023-03-20T09:23:48.180Z,101718.19
2023-03-20T09:26:14.778Z,101739.78
2023-03-20T09:28:41.330Z,101752.28
2023-03-20T09:31:07.984Z,101658.91
2023-03-20T09:33:34.509Z,101716.81
2023-03-20T09:36:01.292Z,101752.47
2023-03-20T09:38:27.830Z,101723.34
2023-03-20T09:40:57.582Z,101724.88
2023-03-20T09:43:34.392Z,101765.84
2023-03-20T09:46:33.229Z,101765.59
2023-03-20T09:49:30.563Z,101768.81
2023-03-20T09:51:59.841Z,101756.31
2023-03-20T09:54:52.633Z,101697.00
2023-03-20T09:57:44.768Z,101780.53
2023-03-20T10:00:18.758Z,101766.13
2023-03-20T10:02:52.664Z,101688.84
2023-03-20T10:05:39.280Z,101696.78
2023-03-20T10:08:16.138Z,101721.91
2023-03-20T10:10:52.124Z,101660.84
2023-03-20T10:13:37.133Z,101781.69
2023-03-20T10:16:38.491Z,101787.84
2023-03-20T10:19:36.397Z,101670.66
2023-03-20T10:22:16.878Z,101744.41
2023-03-20T10:24:50.646Z,101708.44
2023-03-20T10:27:40.608Z,101771.63
2023-03-20T10:30:24.116Z,101777.78
2023-03-20T10:32:57.053Z,101651.81
2023-03-20T10:35:38.132Z,101674.97
2023-03-20T10:38:11.903Z,101736.47
2023-03-20T10:40:41.631Z,101751.88
2023-03-20T10:43:19.612Z,101750.84
2023-03-20T10:45:50.854Z,101749.97
2023-03-20T10:48:37.119Z,101755.63
2023-03-20T10:51:04.439Z,101649.13
2023-03-20T10:53:37.507Z,101752.47
2023-03-20T10:56:14.070Z,101635.91
2023-03-20T10:58:47.092Z,101664.78
2023-03-20T11:01:14.486Z,101731.78
2023-03-20T11:03:41.329Z,101644.94
2023-03-20T11:06:27.768Z,101758.28
2023-03-20T11:08:54.445Z,101727.41
2023-03-20T11:11:27.857Z,101674.22
2023-03-20T11:13:55.395Z,101666.63
2023-03-20T11:16:31.542Z,101716.00
2023-03-20T11:19:06.185Z,101716.28
2023-03-20T11:21:33.791Z,101640.31
2023-03-20T11:24:01.330Z,101738.25
2023-03-20T11:26:37.390Z,101733.66
2023-03-20T11:29:07.979Z,101633.44
2023-03-20T11:31:40.828Z,101689.91
2023-03-20T11:34:07.474Z,101733.97
2023-03-20T11:36:36.692Z,101649.53
2023-03-20T11:39:13.462Z,101735.22
2023-03-20T11:41:45.966Z,101727.25
2023-03-20T11:44:24.354Z,101737.69
2023-03-20T11:47:03.576Z,101697.31
2023-03-20T11:49:32.250Z,101699.56
2023-03-20T11:52:12.441Z,101641.28
2023-03-20T11:54:47.223Z,101637.72
2023-03-20T11:57:35.992Z,101637.44
2023-03-20T12:00:05.174Z,101724.78
2023-03-20T12:02:32.407Z,101608.75
2023-03-20T12:05:02.243Z,101627.91
2023-03-20T12:07:37.854Z,101577.19
2023-03-20T12:10:07.593Z,101639.31
2023-03-20T12:12:59.142Z,101705.59
2023-03-20T12:15:30.705Z,101696.25
2023-03-20T12:18:11.000Z,101664.09
2023-03-20T12:21:04.691Z,101669.63
2023-03-20T12:23:34.053Z,101689.41
2023-03-20T12:26:10.152Z,101624.97
2023-03-20T12:28:48.220Z,101661.22
2023-03-20T12:31:32.465Z,101705.03
2023-03-20T12:34:11.550Z,101670.50
2023-03-20T12:36:42.573Z,101682.75
2023-03-20T12:39:16.069Z,101590.75
2023-03-20T12:42:08.465Z,101653.84
2023-03-20T12:44:51.015Z,101633.66
2023-03-20T12:47:23.721Z,101683.34
2023-03-20T12:50:29.802Z,101590.56
2023-03-20T12:53:20.829Z,101682.63
2023-03-20T12:56:01.870Z,101667.38
2023-03-20T12:58:52.772Z,101670.69
2023-03-20T13:01:22.288Z,101585.16
2023-03-20T13:04:41.890Z,101667.75
2023-03-20T13:07:19.412Z,101673.28
2023-03-20T13:10:08.893Z,101578.25
2023-03-20T13:12:47.596Z,101653.34
2023-03-20T13:15:22.678Z,101565.19
2023-03-20T13:17:49.157Z,101653.97
2023-03-20T13:20:32.228Z,101645.00
2023-03-20T13:22:58.722Z,101647.47
2023-03-20T13:25:43.335Z,101623.94
2023-03-20T13:28:35.153Z,101643.88
2023-03-20T13:31:23.417Z,101643.22
2023-03-20T13:34:19.133Z,101646.75
2023-03-20T13:36:54.726Z,101629.84
2023-03-20T13:39:33.743Z,101567.47
2023-03-20T13:42:04.112Z,101567.03
2023-03-20T13:44:33.631Z,101547.53
2023-03-20T13:47:15.789Z,101627.59
2023-03-20T13:49:52.355Z,101554.25
2023-03-20T13:52:48.667Z,101622.59
2023-03-20T13:55:38.179Z,101587.31
2023-03-20T13:58:47.405Z,101625.91
2023-03-20T14:01:47.310Z,101624.28
2023-03-20T14:04:18.781Z,101600.06
2023-03-20T14:06:51.981Z,101597.94
2023-03-20T14:09:31.837Z,101609.31
2023-03-20T14:12:08.567Z,101593.78
2023-03-20T14:14:49.508Z,101609.91
2023-03-20T14:17:21.007Z,101612.66
2023-03-20T14:19:48.886Z,101528.38
2023-03-20T14:22:36.679Z,101599.75
2023-03-20T14:25:13.885Z,101567.09
2023-03-20T14:28:06.902Z,101595.28
2023-03-20T14:30:38.448Z,101597.59
2023-03-20T14:33:05.431Z,101601.81
2023-03-20T14:35:38.211Z,101603.38
2023-03-20T14:38:25.641Z,101584.50
2023-03-20T14:41:12.167Z,101494.28
2023-03-20T14:43:59.108Z,101489.38
2023-03-20T14:46:31.698Z,101580.13
2023-03-20T14:49:02.419Z,101577.34
2023-03-20T14:51:39.430Z,101577.28
2023-03-20T14:54:21.012Z,101573.78
2023-03-20T14:56:49.186Z,101517.19
2023-03-20T14:59:18.135Z,101498.09
2023-03-20T15:01:56.846Z,101566.59
2023-03-20T15:04:31.302Z,101532.16
2023-03-20T15:07:01.988Z,101570.00
2023-03-20T15:09:31.262Z,101448.63
2023-03-20T15:12:05.245Z,101580.59
2023-03-20T15:14:45.408Z,101485.41
2023-03-20T15:17:21.389Z,101464.91
2023-03-20T15:19:50.699Z,101487.41
2023-03-20T15:22:20.425Z,101507.41
2023-03-20T15:24:55.873Z,101539.97
2023-03-20T15:27:26.133Z,101532.03
2023-03-20T15:29:55.466Z,101517.69
2023-03-20T15:32:22.532Z,101558.41
2023-03-20T15:34:51.024Z,101482.19
2023-03-20T15:37:23.369Z,101562.53
2023-03-20T15:39:55.384Z,101543.47
2023-03-20T15:42:24.719Z,101537.09
2023-03-20T15:44:54.235Z,101530.66
2023-03-20T15:47:23.201Z,101570.13
2023-03-20T15:49:56.059Z,101500.16
2023-03-20T15:52:37.853Z,101583.78
2023-03-20T15:55:10.966Z,101495.22
2023-03-20T15:57:40.492Z,101535.84
2023-03-20T16:00:17.752Z,101550.22
2023-03-20T16:02:48.526Z,101514.31
2023-03-20T16:05:17.059Z,101539.72
2023-03-20T16:07:43.832Z,101473.19
2023-03-20T16:10:27.520Z,101476.94
2023-03-20T16:12:55.224Z,101548.72
2023-03-20T16:15:27.678Z,101476.22
2023-03-20T16:17:57.650Z,101539.03
2023-03-20T16:20:27.197Z,101446.66
2023-03-20T16:22:59.428Z,101472.66
2023-03-20T16:25:26.128Z,101462.69
2023-03-20T16:27:53.257Z,101474.38
2023-03-20T16:30:24.868Z,101557.94
2023-03-20T16:32:58.436Z,101559.75
2023-03-20T16:35:29.870Z,101471.97
2023-03-20T16:38:02.323Z,101548.34
2023-03-20T16:40:34.810Z,101520.50
2023-03-20T16:43:13.696Z,101549.38
2023-03-20T16:45:44.399Z,101552.97
2023-03-20T16:48:13.817Z,101547.66
2023-03-20T16:50:45.448Z,101491.91
2023-03-20T16:53:15.294Z,101462.53
2023-03-20T16:55:51.113Z,101468.97
2023-03-20T16:58:28.296Z,101520.00
2023-03-20T17:01:06.346Z,101443.84
2023-03-20T17:04:14.579Z,101549.03
2023-03-20T17:06:47.497Z,101509.59
2023-03-20T17:09:13.966Z,101554.25
2023-03-20T17:11:47.412Z,101465.50
2023-03-20T17:14:14.080Z,101466.31
2023-03-20T17:16:40.821Z,101452.97
2023-03-20T17:19:14.691Z,101524.94
2023-03-20T17:21:41.722Z,101507.91
2023-03-20T17:24:09.333Z,101465.59
2023-03-20T17:26:35.877Z,101521.19
2023-03-20T17:29:02.868Z,101510.47
2023-03-20T17:31:29.537Z,101515.78
2023-03-20T17:33:56.199Z,101521.06
2023-03-20T17:36:26.633Z,101452.91
2023-03-20T17:38:54.562Z,101549.03
2023-03-20T17:41:22.771Z,101512.19
2023-03-20T17:43:51.378Z,101447.72
2023-03-20T17:46:21.834Z,101522.06
2023-03-20T17:48:49.285Z,101474.50
2023-03-20T17:51:15.905Z,101547.88
2023-03-20T17:53:43.537Z,101524.50
2023-03-20T17:56:15.541Z,101503.81
2023-03-20T17:58:45.890Z,101567.34
2023-03-20T18:01:13.687Z,101410.22
2023-03-20T18:03:40.691Z,101517.94
2023-03-20T18:06:07.545Z,101511.47
2023-03-20T18:08:34.101Z,101526.00
2023-03-20T18:11:00.689Z,101434.59
2023-03-20T18:13:27.262Z,101546.84
2023-03-20T18:15:56.842Z,101480.31
2023-03-20T18:18:24.252Z,101526.19
2023-03-20T18:20:52.164Z,101466.13
2023-03-20T18:23:18.807Z,101467.84
2023-03-20T18:25:45.731Z,101541.38
2023-03-20T18:28:18.422Z,101472.41
2023-03-20T18:30:45.184Z,101533.44
2023-03-20T18:33:12.053Z,101531.66
2023-03-20T18:35:38.899Z,101500.25
2023-03-20T18:38:05.865Z,101522.66
2023-03-20T18:40:35.837Z,101460.78
2023-03-20T18:43:03.500Z,101540.69
2023-03-20T18:45:31.772Z,101511.91
2023-03-20T18:47:58.706Z,101547.97
2023-03-20T18:50:35.102Z,101557.81
2023-03-20T18:53:05.229Z,101514.84
2023-03-20T18:55:31.845Z,101469.09
2023-03-20T18:57:59.229Z,101531.94
2023-03-20T19:00:40.405Z,101556.09
2023-03-20T19:03:08.302Z,101562.34
2023-03-20T19:05:34.856Z,101529.25
2023-03-20T19:08:03.199Z,101449.47
2023-03-20T19:10:36.686Z,101551.72
2023-03-20T19:13:05.421Z,101478.97
2023-03-20T19:15:35.497Z,101522.06
2023-03-20T19:18:03.558Z,101406.25
2023-03-20T19:20:30.315Z,101546.47
2023-03-20T19:22:57.844Z,101456.84
2023-03-20T19:25:24.403Z,101520.63
2023-03-20T19:27:50.917Z,101534.13
2023-03-20T19:30:23.743Z,101536.06
2023-03-20T19:32:50.383Z,101458.78
2023-03-20T19:38:04.305Z,101529.66
2023-03-20T19:40:34.447Z,101455.13
2023-03-20T19:43:03.730Z,101405.78
2023-03-20T19:45:38.418Z,101522.53
2023-03-20T19:48:15.395Z,101529.75
2023-03-20T19:50:43.844Z,101536.00
2023-03-20T19:53:12.389Z,101524.50
2023-03-20T19:55:39.583Z,101528.91
2023-03-20T19:58:06.539Z,101508.34
2023-03-20T20:03:24.867Z,101532.63
2023-03-20T20:05:52.884Z,101429.38
2023-03-20T20:08:38.284Z,101430.38
2023-03-20T20:11:07.577Z,101491.41
2023-03-20T20:13:40.125Z,101474.44
2023-03-20T20:16:13.601Z,101518.53
2023-03-20T20:18:40.179Z,101510.38
2023-03-20T20:21:59.927Z,101497.84
2023-03-20T20:23:53.296Z,101509.47
2023-03-20T20:26:19.892Z,101504.19
2023-03-20T20:28:46.574Z,101435.13
2023-03-20T20:31:13.167Z,101492.56
2023-03-20T20:33:39.971Z,101515.84
2023-03-20T20:38:58.062Z,101428.88
2023-03-20T20:41:25.923Z,101485.59
2023-03-20T20:46:38.941Z,101512.53
2023-03-20T20:49:18.386Z,101500.88
2023-03-20T20:51:45.990Z,101433.47
2023-03-20T20:54:12.618Z,101413.03
2023-03-20T20:56:39.192Z,101518.78
2023-03-20T20:59:07.127Z,101411.38
2023-03-20T21:01:34.498Z,101522.50
2023-03-20T21:04:02.208Z,101447.19
2023-03-20T21:06:57.882Z,101489.50
2023-03-20T21:09:15.346Z,101419.56
2023-03-20T21:11:41.878Z,101457.22
2023-03-20T21:14:08.433Z,101423.03
2023-03-20T21:16:34.931Z,101479.53
2023-03-20T21:19:01.630Z,101503.88
2023-03-20T21:21:28.278Z,101502.03
2023-03-20T21:23:55.335Z,101482.13
2023-03-20T21:26:22.409Z,101421.19
2023-03-20T21:28:48.904Z,101473.22
2023-03-20T21:31:30.252Z,101355.84
2023-03-20T21:33:57.864Z,101516.31
2023-03-20T21:36:24.613Z,101481.28
2023-03-20T21:39:07.458Z,101463.50
2023-03-20T21:41:37.758Z,101495.72
2023-03-20T21:44:05.803Z,101420.41
2023-03-20T21:52:54.664Z,101488.63
2023-03-20T21:55:40.912Z,101496.75
2023-03-20T22:03:33.791Z,101480.66
2023-03-20T22:15:23.289Z,101509.41
2023-03-20T22:26:11.278Z,101485.97
2023-03-20T22:37:35.434Z,101374.81
2023-03-20T22:42:49.660Z,101453.84
2023-03-20T22:45:08.898Z,101409.13
2023-03-20T22:47:36.088Z,101469.00
2023-03-20T22:50:02.717Z,101474.44
2023-03-20T22:52:45.616Z,101488.97
2023-03-20T22:55:16.498Z,101406.34
2023-03-20T22:57:52.875Z,101489.72
2023-03-20T23:00:27.195Z,101396.56
2023-03-20T23:02:57.466Z,101363.31
2023-03-20T23:05:27.026Z,101389.34
2023-03-20T23:07:53.610Z,101465.56
2023-03-20T23:10:23.824Z,101479.91
2023-03-20T23:12:50.348Z,101488.97
2023-03-20T23:15:16.981Z,101482.75
2023-03-20T23:17:43.479Z,101474.59
2023-03-20T23:20:13.590Z,101409.19
2023-03-20T23:22:42.564Z,101482.66
2023-03-20T23:25:18.507Z,101480.75
2023-03-20T23:27:50.366Z,101386.63
2023-03-20T23:30:16.942Z,101490.63
2023-03-20T23:32:43.451Z,101418.00
2023-03-20T23:35:10.256Z,101395.66
2023-03-20T23:37:36.924Z,101465.56
2023-03-20T23:40:04.688Z,101396.56
2023-03-20T23:42:31.372Z,101382.16
2023-03-20T23:45:04.458Z,101436.78
2023-03-20T23:47:44.561Z,101469.00
2023-03-20T23:50:20.660Z,101457.41
2023-03-20T23:53:03.628Z,101461.91
2023-03-20T23:55:36.264Z,101486.88
2023-03-20T23:58:02.909Z,101464.47
